Aérodrome :
LOGIN :

S'inscrire | Disclaimer

   EN    FR    IT 

 










Légende :    VFR   VFR Marginal   IFR   IFR Intensif   IFR Très Intensif
Visi : 
Plafond : 
>= 8 km
>= 3000ft
5 à 8 km
1000 à 3000 ft
1500m à 5 km
500 à 1000 ft
800 à 1500m
200 à 500 ft
< 800m
< 200 ft
Symboles :   Orages  Brouillard  Fortes neiges  Fortes précipitations  Vent > 20 kt
SIGMETs :   Divers  Orages  Givrage  Turbulence  Onde Orograph.  Cendres Volcan.







- Altitude de l'aérodrome : 3 ft
- Code IATA : DHR


EHKD - Den Helder De Kooy

DERNIER METAR :
  • 161455Z AUTO 27024KT 9999 SCT025/// SCT030/// BKN035/// 05/01 Q0990 BLU 26022G32KT 9999 SCT020 SCT050 TEMPO 27025G38KT 4000 SHRAGSSN SCT010 SCT018CB

METARs EXPIRÉS :
  • 161425Z AUTO 27021G33KT 240V300 9999 FEW018CB SCT032 BKN038 05/01 Q0990 REDZ BLU 26022G32KT 9999 SCT020 SCT050 TEMPO 27025G38KT 4000 SHRAGSSN SCT010 SCT018CB
  • 161355Z AUTO 27025G35KT 9999 FEW017CB SCT046 BKN051 BKN058 05/01 Q0990 BLU 26022G32KT 9999 SCT020 SCT050 TEMPO 27025G38KT 4000 SHRAGSSN SCT010 SCT018CB
  • 161338Z AUTO 27023KT 9999 FEW024 SCT027 BKN030 05/01 Q0990 BLU 26022G32KT 9999 SCT020 SCT050 TEMPO 27025G38KT 4000 SHRAGSSN SCT010 SCT018CB
  • 161325Z AUTO 27023G34KT 240V310 9999 FEW015CB SCT024 BKN037 05/02 Q0990 REDZ WHT 26022G32KT 9999 SCT020 SCT050 TEMPO 27025G38KT 4000 SHRAGSSN SCT010 SCT018CB
  • 161316Z AUTO 27026KT 9999 -RA FEW016CB SCT026/// BKN039/// 06/02 Q0990 BLU 26022G32KT 9999 SCT020 SCT050 TEMPO 27025G38KT 4000 SHRAGSSN SCT010 SCT018CB
  • 161304Z AUTO 27023KT 240V300 9999 FEW015CB BKN025 BKN037 06/02 Q0990 BLU 26022G32KT 9999 SCT020 SCT050 TEMPO 27025G38KT 4000 SHRAGSSN SCT010 SCT018CB
  • 161255Z AUTO 27022G32KT 240V310 9000 +DZ FEW019/// BKN022/// BKN030/// 04/01 Q0990 WHT 26022G32KT 9999 SCT020 SCT050 TEMPO 27025G38KT 4000 SHRAGSSN SCT010 SCT018CB
  • 161229Z AUTO 27024G34KT 240V310 9999 -UP FEW016CB SCT027 BKN031 06/01 Q0990 BLU 26022G32KT 9999 SCT020 SCT050 TEMPO 27025G38KT 4000 SHRAGSSN SCT010 SCT018CB
  • 161225Z AUTO 27022KT 230V310 9999 -RA FEW015CB BKN024 BKN030 06/02 Q0990 REUPRA WHT 26022G32KT 9999 SCT020 SCT050 TEMPO 27025G38KT 4000 SHRAGSSN SCT010 SCT018CB

TAF TAF EHKD
Valide du 16 à 14h jusqu'au 17 à 02h UTC


161313Z 1614/1702 27022G32KT 9999 SCT020 BKN070
TEMPO 1614/1702 28026G36KT 4000 SHRAGSSN SCT010 SCT018CB BKN020
PROB30
TEMPO 1622/1702 2000 -SHSN SCT003 SCT015CB BKN018
Pas de NOTAMs connus pour ce terrain.



MET'MAP, la Météo Aéronautique d'un coup d'oeil ! - Copyright ORBIFLY Décembre 2007 - Disclaimer

ORBIFLY MET'MAP TEAM :

Programmation & Développement : Alexandra Zaïnal
Conception & Développement : Baudouin d'Aumeries
Co-Programmation & Développement : Marc-Olivier Méhu
Soutien technique & logistique : Manuel Goepfert

Contact : metmap@orbifly.com




SOURCES & CREDITS :

   NOAA